sensor_id;sensor_type;location;lat;lon;timestamp;temperature;humidity
5560;DHT22;2803;47.916;8.074;2024-02-21T00:00:45;7.10;99.90
5560;DHT22;2803;47.916;8.074;2024-02-21T00:03:12;7.00;99.90
5560;DHT22;2803;47.916;8.074;2024-02-21T00:05:38;6.80;99.90
5560;DHT22;2803;47.916;8.074;2024-02-21T00:08:06;7.00;99.90
5560;DHT22;2803;47.916;8.074;2024-02-21T00:10:33;6.80;99.90
5560;DHT22;2803;47.916;8.074;2024-02-21T00:13:00;6.70;99.90
5560;DHT22;2803;47.916;8.074;2024-02-21T00:15:27;6.70;99.90
5560;DHT22;2803;47.916;8.074;2024-02-21T00:17:54;6.70;99.90
5560;DHT22;2803;47.916;8.074;2024-02-21T00:20:20;6.40;99.90
5560;DHT22;2803;47.916;8.074;2024-02-21T00:22:47;6.30;99.90
5560;DHT22;2803;47.916;8.074;2024-02-21T00:25:15;6.70;99.90
5560;DHT22;2803;47.916;8.074;2024-02-21T00:27:43;6.90;99.90
5560;DHT22;2803;47.916;8.074;2024-02-21T00:30:10;6.90;99.90
5560;DHT22;2803;47.916;8.074;2024-02-21T00:32:37;7.10;99.90
5560;DHT22;2803;47.916;8.074;2024-02-21T00:35:04;6.90;99.90
5560;DHT22;2803;47.916;8.074;2024-02-21T00:37:31;7.00;99.90
5560;DHT22;2803;47.916;8.074;2024-02-21T00:39:57;6.70;99.90
5560;DHT22;2803;47.916;8.074;2024-02-21T00:42:25;6.80;99.90
5560;DHT22;2803;47.916;8.074;2024-02-21T00:44:52;6.90;99.90
5560;DHT22;2803;47.916;8.074;2024-02-21T00:47:18;7.00;99.90
5560;DHT22;2803;47.916;8.074;2024-02-21T00:49:45;7.10;99.90
5560;DHT22;2803;47.916;8.074;2024-02-21T00:52:12;7.20;99.90
5560;DHT22;2803;47.916;8.074;2024-02-21T00:54:38;7.10;99.90
5560;DHT22;2803;47.916;8.074;2024-02-21T00:57:05;6.90;99.90
5560;DHT22;2803;47.916;8.074;2024-02-21T00:59:33;6.70;99.90
5560;DHT22;2803;47.916;8.074;2024-02-21T01:02:00;6.80;99.90
5560;DHT22;2803;47.916;8.074;2024-02-21T01:04:26;7.00;99.90
5560;DHT22;2803;47.916;8.074;2024-02-21T01:06:53;7.10;99.90
5560;DHT22;2803;47.916;8.074;2024-02-21T01:09:19;7.20;99.90
5560;DHT22;2803;47.916;8.074;2024-02-21T01:11:46;7.10;99.90
5560;DHT22;2803;47.916;8.074;2024-02-21T01:14:13;7.10;99.90
5560;DHT22;2803;47.916;8.074;2024-02-21T01:16:40;7.20;99.90
5560;DHT22;2803;47.916;8.074;2024-02-21T01:19:08;7.30;99.90
5560;DHT22;2803;47.916;8.074;2024-02-21T01:21:34;7.30;99.90
5560;DHT22;2803;47.916;8.074;2024-02-21T01:24:01;7.20;99.90
5560;DHT22;2803;47.916;8.074;2024-02-21T01:26:27;7.30;99.90
5560;DHT22;2803;47.916;8.074;2024-02-21T01:28:54;7.30;99.90
5560;DHT22;2803;47.916;8.074;2024-02-21T01:31:21;7.30;99.90
5560;DHT22;2803;47.916;8.074;2024-02-21T01:33:48;7.40;99.90
5560;DHT22;2803;47.916;8.074;2024-02-21T01:36:15;7.40;99.90
5560;DHT22;2803;47.916;8.074;2024-02-21T01:38:42;7.50;99.90
5560;DHT22;2803;47.916;8.074;2024-02-21T01:41:08;7.40;99.90
5560;DHT22;2803;47.916;8.074;2024-02-21T01:43:35;7.10;99.90
5560;DHT22;2803;47.916;8.074;2024-02-21T01:46:01;7.00;99.90
5560;DHT22;2803;47.916;8.074;2024-02-21T01:48:28;7.00;99.90
5560;DHT22;2803;47.916;8.074;2024-02-21T01:50:57;7.20;99.90
5560;DHT22;2803;47.916;8.074;2024-02-21T01:53:27;7.10;99.90
5560;DHT22;2803;47.916;8.074;2024-02-21T01:55:55;7.10;99.90
5560;DHT22;2803;47.916;8.074;2024-02-21T01:58:23;7.30;99.90
5560;DHT22;2803;47.916;8.074;2024-02-21T02:00:50;7.40;99.90
5560;DHT22;2803;47.916;8.074;2024-02-21T02:03:17;7.50;99.90
5560;DHT22;2803;47.916;8.074;2024-02-21T02:05:44;6.80;99.90
5560;DHT22;2803;47.916;8.074;2024-02-21T02:08:13;6.80;99.90
5560;DHT22;2803;47.916;8.074;2024-02-21T02:10:40;7.10;99.90
5560;DHT22;2803;47.916;8.074;2024-02-21T02:13:06;7.10;99.90
5560;DHT22;2803;47.916;8.074;2024-02-21T02:15:40;7.30;99.90
5560;DHT22;2803;47.916;8.074;2024-02-21T02:18:07;7.00;99.90
5560;DHT22;2803;47.916;8.074;2024-02-21T02:20:34;7.10;99.90
5560;DHT22;2803;47.916;8.074;2024-02-21T02:23:04;7.30;99.90
5560;DHT22;2803;47.916;8.074;2024-02-21T02:25:34;7.30;99.90
5560;DHT22;2803;47.916;8.074;2024-02-21T02:28:01;7.40;99.90
5560;DHT22;2803;47.916;8.074;2024-02-21T02:30:27;7.50;99.90
5560;DHT22;2803;47.916;8.074;2024-02-21T02:32:55;7.30;99.90
5560;DHT22;2803;47.916;8.074;2024-02-21T02:35:21;7.00;99.90
5560;DHT22;2803;47.916;8.074;2024-02-21T02:37:48;7.20;99.90
5560;DHT22;2803;47.916;8.074;2024-02-21T02:40:16;7.10;99.90
5560;DHT22;2803;47.916;8.074;2024-02-21T02:42:44;5.60;99.90
5560;DHT22;2803;47.916;8.074;2024-02-21T02:45:12;5.10;99.90
5560;DHT22;2803;47.916;8.074;2024-02-21T02:47:40;4.40;99.90
5560;DHT22;2803;47.916;8.074;2024-02-21T02:50:07;4.40;99.90
5560;DHT22;2803;47.916;8.074;2024-02-21T02:52:34;4.60;99.90
5560;DHT22;2803;47.916;8.074;2024-02-21T02:55:00;5.00;99.90
5560;DHT22;2803;47.916;8.074;2024-02-21T02:57:27;5.10;99.90
5560;DHT22;2803;47.916;8.074;2024-02-21T02:59:55;5.50;99.90
5560;DHT22;2803;47.916;8.074;2024-02-21T03:02:21;5.90;99.90
5560;DHT22;2803;47.916;8.074;2024-02-21T03:04:48;6.20;99.90
5560;DHT22;2803;47.916;8.074;2024-02-21T03:07:15;6.40;99.90
5560;DHT22;2803;47.916;8.074;2024-02-21T03:09:42;6.60;99.90
5560;DHT22;2803;47.916;8.074;2024-02-21T03:12:09;6.90;99.90
5560;DHT22;2803;47.916;8.074;2024-02-21T03:14:36;7.10;99.90
5560;DHT22;2803;47.916;8.074;2024-02-21T03:17:03;7.30;99.90
5560;DHT22;2803;47.916;8.074;2024-02-21T03:19:31;7.60;99.90
5560;DHT22;2803;47.916;8.074;2024-02-21T03:21:57;7.50;99.90
5560;DHT22;2803;47.916;8.074;2024-02-21T03:24:24;7.40;99.90
5560;DHT22;2803;47.916;8.074;2024-02-21T03:26:50;7.30;99.90
5560;DHT22;2803;47.916;8.074;2024-02-21T03:29:18;7.00;99.90
5560;DHT22;2803;47.916;8.074;2024-02-21T03:31:45;6.60;99.90
5560;DHT22;2803;47.916;8.074;2024-02-21T03:34:13;6.70;99.90
5560;DHT22;2803;47.916;8.074;2024-02-21T03:36:39;6.50;99.90
5560;DHT22;2803;47.916;8.074;2024-02-21T03:39:06;6.50;99.90
5560;DHT22;2803;47.916;8.074;2024-02-21T03:41:33;6.80;99.90
5560;DHT22;2803;47.916;8.074;2024-02-21T03:44:00;7.10;99.90
5560;DHT22;2803;47.916;8.074;2024-02-21T03:46:27;7.20;99.90
5560;DHT22;2803;47.916;8.074;2024-02-21T03:48:54;7.00;99.90
5560;DHT22;2803;47.916;8.074;2024-02-21T03:51:22;7.10;99.90
5560;DHT22;2803;47.916;8.074;2024-02-21T03:53:49;7.20;99.90
5560;DHT22;2803;47.916;8.074;2024-02-21T03:56:16;7.30;99.90
5560;DHT22;2803;47.916;8.074;2024-02-21T03:58:42;7.40;99.90
5560;DHT22;2803;47.916;8.074;2024-02-21T04:01:10;7.50;99.90
5560;DHT22;2803;47.916;8.074;2024-02-21T04:03:37;7.50;99.90
5560;DHT22;2803;47.916;8.074;2024-02-21T04:06:04;7.10;99.90
5560;DHT22;2803;47.916;8.074;2024-02-21T04:08:32;7.10;99.90
5560;DHT22;2803;47.916;8.074;2024-02-21T04:10:59;6.90;99.90
5560;DHT22;2803;47.916;8.074;2024-02-21T04:13:25;7.00;99.90
5560;DHT22;2803;47.916;8.074;2024-02-21T04:15:52;6.70;99.90
5560;DHT22;2803;47.916;8.074;2024-02-21T04:18:19;6.80;99.90
5560;DHT22;2803;47.916;8.074;2024-02-21T04:20:47;7.10;99.90
5560;DHT22;2803;47.916;8.074;2024-02-21T04:23:13;7.00;99.90
5560;DHT22;2803;47.916;8.074;2024-02-21T04:25:41;7.00;99.90
5560;DHT22;2803;47.916;8.074;2024-02-21T04:28:08;7.00;99.90
5560;DHT22;2803;47.916;8.074;2024-02-21T04:30:34;7.10;99.90
5560;DHT22;2803;47.916;8.074;2024-02-21T04:33:01;7.30;99.90
5560;DHT22;2803;47.916;8.074;2024-02-21T04:35:27;7.10;99.90
5560;DHT22;2803;47.916;8.074;2024-02-21T04:37:54;7.10;99.90
5560;DHT22;2803;47.916;8.074;2024-02-21T04:40:21;7.10;99.90
5560;DHT22;2803;47.916;8.074;2024-02-21T04:42:49;7.20;99.90
5560;DHT22;2803;47.916;8.074;2024-02-21T04:45:15;6.80;99.90
5560;DHT22;2803;47.916;8.074;2024-02-21T04:47:43;6.20;99.90
5560;DHT22;2803;47.916;8.074;2024-02-21T04:50:09;6.00;99.90
5560;DHT22;2803;47.916;8.074;2024-02-21T04:53:03;6.10;99.90
5560;DHT22;2803;47.916;8.074;2024-02-21T04:55:30;6.40;99.90
5560;DHT22;2803;47.916;8.074;2024-02-21T04:57:57;6.40;99.90
5560;DHT22;2803;47.916;8.074;2024-02-21T05:00:23;6.10;99.90
5560;DHT22;2803;47.916;8.074;2024-02-21T05:02:50;6.10;99.90
5560;DHT22;2803;47.916;8.074;2024-02-21T05:05:17;6.30;99.90
5560;DHT22;2803;47.916;8.074;2024-02-21T05:07:43;6.70;99.90
5560;DHT22;2803;47.916;8.074;2024-02-21T05:10:11;6.90;99.90
5560;DHT22;2803;47.916;8.074;2024-02-21T05:12:38;7.10;99.90
5560;DHT22;2803;47.916;8.074;2024-02-21T05:15:06;7.20;99.90
5560;DHT22;2803;47.916;8.074;2024-02-21T05:17:33;7.10;99.90
5560;DHT22;2803;47.916;8.074;2024-02-21T05:20:00;7.10;99.90
5560;DHT22;2803;47.916;8.074;2024-02-21T05:22:26;7.10;99.90
5560;DHT22;2803;47.916;8.074;2024-02-21T05:24:53;7.00;99.90
5560;DHT22;2803;47.916;8.074;2024-02-21T05:27:21;6.90;99.90
5560;DHT22;2803;47.916;8.074;2024-02-21T05:29:48;6.90;99.90
5560;DHT22;2803;47.916;8.074;2024-02-21T05:32:15;6.90;99.90
5560;DHT22;2803;47.916;8.074;2024-02-21T05:34:42;6.90;99.90
5560;DHT22;2803;47.916;8.074;2024-02-21T05:37:08;7.10;99.90
5560;DHT22;2803;47.916;8.074;2024-02-21T05:39:35;6.90;99.90
5560;DHT22;2803;47.916;8.074;2024-02-21T05:42:02;6.60;99.90
5560;DHT22;2803;47.916;8.074;2024-02-21T05:44:30;6.80;99.90
5560;DHT22;2803;47.916;8.074;2024-02-21T05:46:56;6.90;99.90
5560;DHT22;2803;47.916;8.074;2024-02-21T05:49:23;6.90;99.90
5560;DHT22;2803;47.916;8.074;2024-02-21T05:51:49;7.10;99.90
5560;DHT22;2803;47.916;8.074;2024-02-21T05:54:16;7.10;99.90
5560;DHT22;2803;47.916;8.074;2024-02-21T05:56:44;7.10;99.90
5560;DHT22;2803;47.916;8.074;2024-02-21T05:59:12;7.00;99.90
5560;DHT22;2803;47.916;8.074;2024-02-21T06:01:40;6.90;99.90
5560;DHT22;2803;47.916;8.074;2024-02-21T06:04:07;7.00;99.90
5560;DHT22;2803;47.916;8.074;2024-02-21T06:06:33;7.00;99.90
5560;DHT22;2803;47.916;8.074;2024-02-21T06:09:00;6.90;99.90
5560;DHT22;2803;47.916;8.074;2024-02-21T06:11:28;6.70;99.90
5560;DHT22;2803;47.916;8.074;2024-02-21T06:13:55;6.70;99.90
5560;DHT22;2803;47.916;8.074;2024-02-21T06:16:21;6.60;99.90
5560;DHT22;2803;47.916;8.074;2024-02-21T06:18:49;6.80;99.90
5560;DHT22;2803;47.916;8.074;2024-02-21T06:21:15;6.80;99.90
5560;DHT22;2803;47.916;8.074;2024-02-21T06:23:42;6.70;99.90
5560;DHT22;2803;47.916;8.074;2024-02-21T06:26:09;6.50;99.90
5560;DHT22;2803;47.916;8.074;2024-02-21T06:28:37;6.40;99.90
5560;DHT22;2803;47.916;8.074;2024-02-21T06:31:03;6.50;99.90
5560;DHT22;2803;47.916;8.074;2024-02-21T06:33:30;6.50;99.90
5560;DHT22;2803;47.916;8.074;2024-02-21T06:35:58;6.60;99.90
5560;DHT22;2803;47.916;8.074;2024-02-21T06:38:24;6.60;99.90
5560;DHT22;2803;47.916;8.074;2024-02-21T06:40:51;6.70;99.90
5560;DHT22;2803;47.916;8.074;2024-02-21T06:43:20;6.40;99.90
5560;DHT22;2803;47.916;8.074;2024-02-21T06:45:47;6.40;99.90
5560;DHT22;2803;47.916;8.074;2024-02-21T06:48:16;6.60;99.90
5560;DHT22;2803;47.916;8.074;2024-02-21T06:50:43;6.60;99.90
5560;DHT22;2803;47.916;8.074;2024-02-21T06:53:11;6.60;99.90
5560;DHT22;2803;47.916;8.074;2024-02-21T06:55:38;6.50;99.90
5560;DHT22;2803;47.916;8.074;2024-02-21T06:58:05;6.50;99.90
5560;DHT22;2803;47.916;8.074;2024-02-21T07:00:33;6.70;99.90
5560;DHT22;2803;47.916;8.074;2024-02-21T07:03:00;6.80;99.90
5560;DHT22;2803;47.916;8.074;2024-02-21T07:05:28;6.90;99.90
5560;DHT22;2803;47.916;8.074;2024-02-21T07:07:54;6.90;99.90
5560;DHT22;2803;47.916;8.074;2024-02-21T07:10:22;6.80;99.90
5560;DHT22;2803;47.916;8.074;2024-02-21T07:12:49;6.90;99.90
5560;DHT22;2803;47.916;8.074;2024-02-21T07:15:17;7.00;99.90
5560;DHT22;2803;47.916;8.074;2024-02-21T07:17:44;6.90;99.90
5560;DHT22;2803;47.916;8.074;2024-02-21T07:20:10;6.60;99.90
5560;DHT22;2803;47.916;8.074;2024-02-21T07:22:37;6.70;99.90
5560;DHT22;2803;47.916;8.074;2024-02-21T07:25:05;6.80;99.90
5560;DHT22;2803;47.916;8.074;2024-02-21T07:27:33;6.90;99.90
5560;DHT22;2803;47.916;8.074;2024-02-21T07:29:59;7.00;99.90
5560;DHT22;2803;47.916;8.074;2024-02-21T07:32:26;7.20;99.90
5560;DHT22;2803;47.916;8.074;2024-02-21T07:34:52;7.40;99.90
5560;DHT22;2803;47.916;8.074;2024-02-21T07:37:19;7.30;99.90
5560;DHT22;2803;47.916;8.074;2024-02-21T07:39:45;7.30;99.90
5560;DHT22;2803;47.916;8.074;2024-02-21T07:42:12;7.30;99.90
5560;DHT22;2803;47.916;8.074;2024-02-21T07:44:40;7.40;99.90
5560;DHT22;2803;47.916;8.074;2024-02-21T07:47:07;7.20;99.90
5560;DHT22;2803;47.916;8.074;2024-02-21T07:49:40;7.10;99.90
5560;DHT22;2803;47.916;8.074;2024-02-21T07:52:06;6.90;99.90
5560;DHT22;2803;47.916;8.074;2024-02-21T07:54:33;6.90;99.90
5560;DHT22;2803;47.916;8.074;2024-02-21T07:56:59;6.70;99.90
5560;DHT22;2803;47.916;8.074;2024-02-21T07:59:26;6.50;99.90
5560;DHT22;2803;47.916;8.074;2024-02-21T08:01:57;6.50;99.90
5560;DHT22;2803;47.916;8.074;2024-02-21T08:04:24;6.90;99.90
5560;DHT22;2803;47.916;8.074;2024-02-21T08:06:52;7.10;99.90
5560;DHT22;2803;47.916;8.074;2024-02-21T08:09:19;7.00;99.90
5560;DHT22;2803;47.916;8.074;2024-02-21T08:11:45;7.30;99.90
5560;DHT22;2803;47.916;8.074;2024-02-21T08:14:12;7.60;99.90
5560;DHT22;2803;47.916;8.074;2024-02-21T08:16:41;7.80;99.90
5560;DHT22;2803;47.916;8.074;2024-02-21T08:19:10;7.70;99.90
5560;DHT22;2803;47.916;8.074;2024-02-21T08:21:37;7.90;99.90
5560;DHT22;2803;47.916;8.074;2024-02-21T08:24:04;8.20;99.90
5560;DHT22;2803;47.916;8.074;2024-02-21T08:26:30;8.60;99.90
5560;DHT22;2803;47.916;8.074;2024-02-21T08:28:57;8.80;99.90
5560;DHT22;2803;47.916;8.074;2024-02-21T08:31:25;9.00;99.90
5560;DHT22;2803;47.916;8.074;2024-02-21T08:33:56;9.20;99.90
5560;DHT22;2803;47.916;8.074;2024-02-21T08:36:29;9.10;99.90
5560;DHT22;2803;47.916;8.074;2024-02-21T08:38:55;9.40;99.90
5560;DHT22;2803;47.916;8.074;2024-02-21T08:41:23;9.50;99.90
5560;DHT22;2803;47.916;8.074;2024-02-21T08:43:50;9.50;99.90
5560;DHT22;2803;47.916;8.074;2024-02-21T08:46:16;9.60;99.90
5560;DHT22;2803;47.916;8.074;2024-02-21T08:48:43;9.60;99.90
5560;DHT22;2803;47.916;8.074;2024-02-21T08:51:11;9.60;99.90
5560;DHT22;2803;47.916;8.074;2024-02-21T08:53:39;9.90;99.90
5560;DHT22;2803;47.916;8.074;2024-02-21T08:56:06;9.90;99.90
5560;DHT22;2803;47.916;8.074;2024-02-21T08:58:35;10.00;99.90
5560;DHT22;2803;47.916;8.074;2024-02-21T09:01:02;10.10;99.90
5560;DHT22;2803;47.916;8.074;2024-02-21T09:03:31;10.20;99.90
5560;DHT22;2803;47.916;8.074;2024-02-21T09:05:58;9.90;99.90
5560;DHT22;2803;47.916;8.074;2024-02-21T09:08:24;10.00;99.90
5560;DHT22;2803;47.916;8.074;2024-02-21T09:10:52;10.10;99.90
5560;DHT22;2803;47.916;8.074;2024-02-21T09:13:19;10.30;99.90
5560;DHT22;2803;47.916;8.074;2024-02-21T09:15:46;10.20;99.90
5560;DHT22;2803;47.916;8.074;2024-02-21T09:18:13;10.50;99.90
5560;DHT22;2803;47.916;8.074;2024-02-21T09:20:40;10.80;99.90
5560;DHT22;2803;47.916;8.074;2024-02-21T09:23:06;11.00;99.90
5560;DHT22;2803;47.916;8.074;2024-02-21T09:25:33;11.30;99.90
5560;DHT22;2803;47.916;8.074;2024-02-21T09:28:01;11.40;99.90
5560;DHT22;2803;47.916;8.074;2024-02-21T09:30:28;11.70;99.90
5560;DHT22;2803;47.916;8.074;2024-02-21T09:32:55;11.70;99.90
5560;DHT22;2803;47.916;8.074;2024-02-21T09:35:24;11.90;99.90
5560;DHT22;2803;47.916;8.074;2024-02-21T09:37:52;12.20;99.90
5560;DHT22;2803;47.916;8.074;2024-02-21T09:40:18;12.40;99.90
5560;DHT22;2803;47.916;8.074;2024-02-21T09:42:47;12.60;99.90
5560;DHT22;2803;47.916;8.074;2024-02-21T09:45:19;12.80;99.90
5560;DHT22;2803;47.916;8.074;2024-02-21T09:47:55;12.90;99.90
5560;DHT22;2803;47.916;8.074;2024-02-21T09:50:29;13.10;99.90
5560;DHT22;2803;47.916;8.074;2024-02-21T09:52:58;13.30;99.90
5560;DHT22;2803;47.916;8.074;2024-02-21T09:55:26;13.60;99.90
5560;DHT22;2803;47.916;8.074;2024-02-21T09:57:54;13.60;99.90
5560;DHT22;2803;47.916;8.074;2024-02-21T10:00:23;13.70;99.90
5560;DHT22;2803;47.916;8.074;2024-02-21T10:02:50;14.10;99.90
5560;DHT22;2803;47.916;8.074;2024-02-21T10:05:16;14.10;99.90
5560;DHT22;2803;47.916;8.074;2024-02-21T10:07:43;13.50;99.90
5560;DHT22;2803;47.916;8.074;2024-02-21T10:10:10;13.70;99.90
5560;DHT22;2803;47.916;8.074;2024-02-21T10:12:36;13.90;99.90
5560;DHT22;2803;47.916;8.074;2024-02-21T10:15:03;14.00;99.90
5560;DHT22;2803;47.916;8.074;2024-02-21T10:17:32;14.20;99.90
5560;DHT22;2803;47.916;8.074;2024-02-21T10:20:07;14.00;99.90
5560;DHT22;2803;47.916;8.074;2024-02-21T10:22:34;13.60;99.90
5560;DHT22;2803;47.916;8.074;2024-02-21T10:25:07;13.70;99.90
5560;DHT22;2803;47.916;8.074;2024-02-21T10:27:33;13.60;99.90
5560;DHT22;2803;47.916;8.074;2024-02-21T10:30:00;13.70;99.90
5560;DHT22;2803;47.916;8.074;2024-02-21T10:32:27;13.80;99.90
5560;DHT22;2803;47.916;8.074;2024-02-21T10:35:02;14.00;99.90
5560;DHT22;2803;47.916;8.074;2024-02-21T10:37:30;14.50;99.90
5560;DHT22;2803;47.916;8.074;2024-02-21T10:39:58;14.50;99.90
5560;DHT22;2803;47.916;8.074;2024-02-21T10:42:29;15.00;99.80
5560;DHT22;2803;47.916;8.074;2024-02-21T10:45:00;15.20;97.80
5560;DHT22;2803;47.916;8.074;2024-02-21T10:47:28;15.30;96.90
5560;DHT22;2803;47.916;8.074;2024-02-21T10:50:03;15.60;97.30
5560;DHT22;2803;47.916;8.074;2024-02-21T10:52:40;15.60;95.50
5560;DHT22;2803;47.916;8.074;2024-02-21T10:55:19;15.90;96.20
5560;DHT22;2803;47.916;8.074;2024-02-21T10:57:49;15.50;95.10
5560;DHT22;2803;47.916;8.074;2024-02-21T11:00:17;15.70;94.00
5560;DHT22;2803;47.916;8.074;2024-02-21T11:02:44;15.50;95.50
5560;DHT22;2803;47.916;8.074;2024-02-21T11:05:13;15.90;95.50
5560;DHT22;2803;47.916;8.074;2024-02-21T11:07:41;16.30;92.50
5560;DHT22;2803;47.916;8.074;2024-02-21T11:10:20;16.50;93.40
5560;DHT22;2803;47.916;8.074;2024-02-21T11:12:48;16.30;95.10
5560;DHT22;2803;47.916;8.074;2024-02-21T11:15:15;16.30;94.30
5560;DHT22;2803;47.916;8.074;2024-02-21T11:17:53;16.60;93.50
5560;DHT22;2803;47.916;8.074;2024-02-21T11:20:32;16.90;93.60
5560;DHT22;2803;47.916;8.074;2024-02-21T11:22:58;17.00;92.20
5560;DHT22;2803;47.916;8.074;2024-02-21T11:25:25;16.90;93.20
5560;DHT22;2803;47.916;8.074;2024-02-21T11:27:59;16.90;93.20
5560;DHT22;2803;47.916;8.074;2024-02-21T11:30:27;17.20;92.80
5560;DHT22;2803;47.916;8.074;2024-02-21T11:32:59;17.60;93.00
5560;DHT22;2803;47.916;8.074;2024-02-21T11:35:31;17.40;92.70
5560;DHT22;2803;47.916;8.074;2024-02-21T11:38:08;17.50;92.60
5560;DHT22;2803;47.916;8.074;2024-02-21T11:40:37;17.50;92.80
5560;DHT22;2803;47.916;8.074;2024-02-21T11:43:04;17.20;92.60
5560;DHT22;2803;47.916;8.074;2024-02-21T11:45:31;17.70;92.70
5560;DHT22;2803;47.916;8.074;2024-02-21T11:47:59;17.30;92.30
5560;DHT22;2803;47.916;8.074;2024-02-21T11:50:30;16.50;92.10
5560;DHT22;2803;47.916;8.074;2024-02-21T11:52:57;16.80;92.70
5560;DHT22;2803;47.916;8.074;2024-02-21T11:55:24;16.60;92.70
5560;DHT22;2803;47.916;8.074;2024-02-21T11:57:50;16.70;91.90
5560;DHT22;2803;47.916;8.074;2024-02-21T12:00:19;16.70;92.60
5560;DHT22;2803;47.916;8.074;2024-02-21T12:02:50;16.70;94.10
5560;DHT22;2803;47.916;8.074;2024-02-21T12:05:19;16.80;93.70
5560;DHT22;2803;47.916;8.074;2024-02-21T12:07:48;16.40;92.30
5560;DHT22;2803;47.916;8.074;2024-02-21T12:10:14;15.70;92.20
5560;DHT22;2803;47.916;8.074;2024-02-21T12:12:41;15.20;94.10
5560;DHT22;2803;47.916;8.074;2024-02-21T12:15:08;15.60;94.20
5560;DHT22;2803;47.916;8.074;2024-02-21T12:17:35;15.60;93.30
5560;DHT22;2803;47.916;8.074;2024-02-21T12:20:02;15.10;93.20
5560;DHT22;2803;47.916;8.074;2024-02-21T12:22:31;15.10;94.10
5560;DHT22;2803;47.916;8.074;2024-02-21T12:25:02;15.00;93.40
5560;DHT22;2803;47.916;8.074;2024-02-21T12:27:29;14.80;93.20
5560;DHT22;2803;47.916;8.074;2024-02-21T12:29:56;15.00;93.40
5560;DHT22;2803;47.916;8.074;2024-02-21T12:32:22;15.20;92.20
5560;DHT22;2803;47.916;8.074;2024-02-21T12:34:49;15.10;92.40
5560;DHT22;2803;47.916;8.074;2024-02-21T12:37:15;15.30;91.30
5560;DHT22;2803;47.916;8.074;2024-02-21T12:39:42;15.40;90.90
5560;DHT22;2803;47.916;8.074;2024-02-21T12:42:10;15.50;91.50
5560;DHT22;2803;47.916;8.074;2024-02-21T12:44:37;15.90;91.10
5560;DHT22;2803;47.916;8.074;2024-02-21T12:47:04;15.80;90.60
5560;DHT22;2803;47.916;8.074;2024-02-21T12:49:32;15.60;91.10
5560;DHT22;2803;47.916;8.074;2024-02-21T12:52:00;15.80;91.10
5560;DHT22;2803;47.916;8.074;2024-02-21T12:54:30;15.70;92.10
5560;DHT22;2803;47.916;8.074;2024-02-21T12:56:58;16.00;92.00
5560;DHT22;2803;47.916;8.074;2024-02-21T12:59:30;15.80;91.00
5560;DHT22;2803;47.916;8.074;2024-02-21T13:01:58;15.90;91.10
5560;DHT22;2803;47.916;8.074;2024-02-21T13:04:26;16.00;91.40
5560;DHT22;2803;47.916;8.074;2024-02-21T13:06:53;16.00;92.00
5560;DHT22;2803;47.916;8.074;2024-02-21T13:09:21;16.20;91.40
5560;DHT22;2803;47.916;8.074;2024-02-21T13:11:47;16.30;91.60
5560;DHT22;2803;47.916;8.074;2024-02-21T13:14:14;16.30;90.30
5560;DHT22;2803;47.916;8.074;2024-02-21T13:16:42;16.30;90.80
5560;DHT22;2803;47.916;8.074;2024-02-21T13:19:09;16.40;90.00
5560;DHT22;2803;47.916;8.074;2024-02-21T13:21:35;16.50;88.60
5560;DHT22;2803;47.916;8.074;2024-02-21T13:24:03;16.70;88.40
5560;DHT22;2803;47.916;8.074;2024-02-21T13:26:29;16.70;86.90
5560;DHT22;2803;47.916;8.074;2024-02-21T13:28:56;16.70;87.50
5560;DHT22;2803;47.916;8.074;2024-02-21T13:31:22;16.80;87.20
5560;DHT22;2803;47.916;8.074;2024-02-21T13:33:51;16.70;89.60
5560;DHT22;2803;47.916;8.074;2024-02-21T13:36:18;16.50;89.50
5560;DHT22;2803;47.916;8.074;2024-02-21T13:38:45;16.50;90.40
5560;DHT22;2803;47.916;8.074;2024-02-21T13:41:12;16.60;90.50
5560;DHT22;2803;47.916;8.074;2024-02-21T13:43:39;16.20;91.40
5560;DHT22;2803;47.916;8.074;2024-02-21T13:46:05;15.90;92.90
5560;DHT22;2803;47.916;8.074;2024-02-21T13:48:35;15.90;92.40
5560;DHT22;2803;47.916;8.074;2024-02-21T13:51:03;15.90;92.20
5560;DHT22;2803;47.916;8.074;2024-02-21T13:53:30;16.10;91.90
5560;DHT22;2803;47.916;8.074;2024-02-21T13:55:56;15.90;92.80
5560;DHT22;2803;47.916;8.074;2024-02-21T13:58:23;15.70;92.50
5560;DHT22;2803;47.916;8.074;2024-02-21T14:00:51;15.60;94.20
5560;DHT22;2803;47.916;8.074;2024-02-21T14:03:18;15.40;93.90
5560;DHT22;2803;47.916;8.074;2024-02-21T14:05:45;15.10;94.50
5560;DHT22;2803;47.916;8.074;2024-02-21T14:08:15;14.90;94.70
5560;DHT22;2803;47.916;8.074;2024-02-21T14:10:41;14.90;94.80
5560;DHT22;2803;47.916;8.074;2024-02-21T14:13:08;15.20;95.00
5560;DHT22;2803;47.916;8.074;2024-02-21T14:15:34;15.20;94.50
5560;DHT22;2803;47.916;8.074;2024-02-21T14:18:02;15.50;94.40
5560;DHT22;2803;47.916;8.074;2024-02-21T14:20:31;15.60;94.50
5560;DHT22;2803;47.916;8.074;2024-02-21T14:22:57;15.50;93.30
5560;DHT22;2803;47.916;8.074;2024-02-21T14:25:25;15.70;93.50
5560;DHT22;2803;47.916;8.074;2024-02-21T14:27:52;15.80;94.50
5560;DHT22;2803;47.916;8.074;2024-02-21T14:30:18;15.80;94.00
5560;DHT22;2803;47.916;8.074;2024-02-21T14:32:46;15.60;92.20
5560;DHT22;2803;47.916;8.074;2024-02-21T14:35:13;15.70;93.00
5560;DHT22;2803;47.916;8.074;2024-02-21T14:37:40;15.60;93.20
5560;DHT22;2803;47.916;8.074;2024-02-21T14:40:09;15.40;94.10
5560;DHT22;2803;47.916;8.074;2024-02-21T14:42:37;15.20;93.90
5560;DHT22;2803;47.916;8.074;2024-02-21T14:45:04;15.30;93.90
5560;DHT22;2803;47.916;8.074;2024-02-21T14:47:31;15.70;94.00
5560;DHT22;2803;47.916;8.074;2024-02-21T14:49:59;15.70;93.00
5560;DHT22;2803;47.916;8.074;2024-02-21T14:52:26;15.80;91.80
5560;DHT22;2803;47.916;8.074;2024-02-21T14:54:53;15.70;92.10
5560;DHT22;2803;47.916;8.074;2024-02-21T14:57:19;15.90;94.10
5560;DHT22;2803;47.916;8.074;2024-02-21T14:59:47;15.90;94.30
5560;DHT22;2803;47.916;8.074;2024-02-21T15:02:15;15.70;92.80
5560;DHT22;2803;47.916;8.074;2024-02-21T15:04:41;15.60;91.70
5560;DHT22;2803;47.916;8.074;2024-02-21T15:07:08;15.60;92.40
5560;DHT22;2803;47.916;8.074;2024-02-21T15:09:35;15.50;91.70
5560;DHT22;2803;47.916;8.074;2024-02-21T15:12:01;15.60;91.70
5560;DHT22;2803;47.916;8.074;2024-02-21T15:14:28;15.50;91.60
5560;DHT22;2803;47.916;8.074;2024-02-21T15:16:56;15.50;86.90
5560;DHT22;2803;47.916;8.074;2024-02-21T15:19:22;15.60;90.20
5560;DHT22;2803;47.916;8.074;2024-02-21T15:21:49;15.70;93.20
5560;DHT22;2803;47.916;8.074;2024-02-21T15:24:16;15.80;94.10
5560;DHT22;2803;47.916;8.074;2024-02-21T15:26:43;15.90;96.00
5560;DHT22;2803;47.916;8.074;2024-02-21T15:29:10;15.80;96.50
5560;DHT22;2803;47.916;8.074;2024-02-21T15:31:37;15.60;96.00
5560;DHT22;2803;47.916;8.074;2024-02-21T15:34:05;15.40;96.00
5560;DHT22;2803;47.916;8.074;2024-02-21T15:36:32;15.10;94.50
5560;DHT22;2803;47.916;8.074;2024-02-21T15:38:59;15.20;93.40
5560;DHT22;2803;47.916;8.074;2024-02-21T15:41:27;15.20;94.20
5560;DHT22;2803;47.916;8.074;2024-02-21T15:43:53;15.10;95.60
5560;DHT22;2803;47.916;8.074;2024-02-21T15:46:22;15.20;95.70
5560;DHT22;2803;47.916;8.074;2024-02-21T15:48:48;15.20;97.60
5560;DHT22;2803;47.916;8.074;2024-02-21T15:51:21;15.10;98.80
5560;DHT22;2803;47.916;8.074;2024-02-21T15:53:48;14.70;99.70
5560;DHT22;2803;47.916;8.074;2024-02-21T15:56:15;14.70;99.00
5560;DHT22;2803;47.916;8.074;2024-02-21T15:58:42;14.70;99.90
5560;DHT22;2803;47.916;8.074;2024-02-21T16:01:09;14.40;99.90
5560;DHT22;2803;47.916;8.074;2024-02-21T16:03:37;14.40;99.90
5560;DHT22;2803;47.916;8.074;2024-02-21T16:06:04;14.20;98.90
5560;DHT22;2803;47.916;8.074;2024-02-21T16:08:31;14.20;98.30
5560;DHT22;2803;47.916;8.074;2024-02-21T16:11:01;14.00;99.00